Dodge, North Dakota
Current Conditions -  °F | °C
As of 5:15 AM on Thursday 18 Dec 2014 (Local Time) from KHZE Reporting Station
Overcast Overcast  
Wind Chill:   Ceiling: 2000
Heat Index: 18°   Visibility: 10mi
Dew Point: 14°   Wind: 13mph
Humidity: 86%   Direction: 150°SSE
Pressure: 30.06"   Gusts: NA
Location:  47.31°N, 102.2°W
Report Text: KHZE 181215Z AUTO 15011KT 10SM OVC020 M08/M10 A3006 RMK AO2
Loading
Personal Weather Stations






























Interactive Weather Map New forecast layout! Learn more

10-Day Weather Forecast

Advertisements
Track Severe Weather on mobile